Sedalia, IN (46067)

11:30 PM EDT on September 21, 2014 (GMT -0400)
Burlington | Change Station
CLOSE
Current Station
Personal Weather Station
Location: Burlington, IN
Elevation: 712 ft
Nearby Weather Stations

Elev 712 ft 40.49 °N, 86.39 °W | Updated 31 seconds ago

Overcast
Overcast
52.9 °F
Feels Like 52.9 °F
N
0.0
Wind Variable Wind from NW

Today
High -- | Low -- °F
--% Chance of Precip.
Yesterday
High -- | Low -- °F
Precip. -- in
7:32 AM 7:44 PM
Waning Crescent, 4% visible
Pressure 30.10 in
Visibility 10.0 miles
Clouds Mostly Cloudy 2600 ft
Overcast 3400 ft
Dew Point 50 °F
Humidity 88%
Rainfall 0.36 in
Snow Depth Not available.
UV 0 out of 12
Pollen 5.40 out of 12
Air Quality Not available.
Flu Activity Not available.
METAR KGGP 220255Z AUTO 33006KT 10SM BKN026 OVC034 12/08 A3010 RMK AO2

More Conditions Fewer Conditions

Pressure 30.10 in
Visibility 10.0 miles
Clouds Mostly Cloudy 2600 ft
Overcast 3400 ft
Dew Point 50 °F
Humidity 88%
Rainfall 0.36 in
Snow Depth Not available.
UV 0 out of 12
Pollen 5.40 out of 12
Air Quality Not available.
Flu Activity Not available.
METAR KGGP 220255Z AUTO 33006KT 10SM BKN026 OVC034 12/08 A3010 RMK AO2

More Conditions Fewer Conditions

10-Day Weather Forecast

Almanac

Astronomy

Sep. 21, 2014 Rise Set
Actual Time 7:32 AM EDT 7:44 PM EDT
Civil Twilight 7:05 AM EDT 8:12 PM EDT
Nautical Twilight 6:33 AM EDT 8:43 PM EDT
Astronomical Twilight 6:00 AM EDT 9:16 PM EDT
Moon 5:05 AM EDT (9/21) 6:20 PM EDT (9/21)
Length of Visible Light 13h 06m
Length of Day
12h 12m
Tomorrow will be 2m 39s shorter.
Waning Crescent, 4% of the Moon is Illuminated
Today
Waning Crescent
Sep 24
New
Oct 1
First Quarter
Oct 8
Full
Oct 15
Last Quarter

Today's Extremes

State Highs State Lows

Community

WunderPhotos

Upload Photos

1,755,382 photos uploaded!

WunderBlogs® & News

Nearby

Snow Depth

Station Depth Elevation
No new snow has been reported.

Earthquake Activity

City Distance Mag. Time & Date
No recent earthquake activity has been reported nearby.
Minimum magnitude displayed is 2.5.

Coastal Water Temperatures

Place Temperature
No Stations Reporting

Nearby Weather Stations